Time;durP1;ratioP1;P1;durP2;ratioP2;P2;SDS_P1;SDS_P2;PMS_P1;PMS_P2;Temp;Humidity;BMP_temperature;BMP_pressure;BME280_temperature;BME280_humidity;BME280_pressure;Samples;Min_cycle;Max_cycle;Signal;HPM_P1;HPM_P2
2022/04/15 00:00:27;;;;;;;18.60;10.13;;;;;;;;;;5056279;28;19925;-65
2022/04/15 00:02:53;;;;;;;17.92;9.73;;;;;;;;;;5054576;28;20049;-65
2022/04/15 00:05:34;;;;;;;19.23;9.90;;;;;;;;;;5055143;28;20102;-65
2022/04/15 00:08:01;;;;;;;16.83;9.63;;;;;;;;;;5055580;28;20057;-64
2022/04/15 00:10:28;;;;;;;23.85;10.60;;;;;;;;;;5056134;28;20132;-65
2022/04/15 00:12:54;;;;;;;20.23;10.20;;;;;;;;;;5056019;28;20045;-65
2022/04/15 00:15:21;;;;;;;19.75;9.48;;;;;;;;;;5056118;28;20040;-65
2022/04/15 00:17:47;;;;;;;20.02;10.70;;;;;;;;;;5055603;28;20053;-65
2022/04/15 00:20:14;;;;;;;19.60;9.93;;;;;;;;;;5055035;28;20049;-65
2022/04/15 00:22:40;;;;;;;20.55;10.48;;;;;;;;;;5055733;28;20045;-65
2022/04/15 00:25:07;;;;;;;18.33;10.23;;;;;;;;;;5055460;28;20108;-65
2022/04/15 00:27:34;;;;;;;21.77;10.10;;;;;;;;;;5054869;28;20048;-65
2022/04/15 00:30:01;;;;;;;21.35;10.48;;;;;;;;;;5054176;28;20049;-65
2022/04/15 00:32:27;;;;;;;19.80;9.88;;;;;;;;;;5055253;28;20049;-65
2022/04/15 00:34:53;;;;;;;19.70;8.90;;;;;;;;;;5055149;28;20048;-65
2022/04/15 00:37:20;;;;;;;16.60;9.07;;;;;;;;;;5054034;28;20045;-65
2022/04/15 00:39:46;;;;;;;16.83;8.18;;;;;;;;;;5055561;28;20111;-65
2022/04/15 00:42:12;;;;;;;18.00;8.48;;;;;;;;;;5055424;28;20110;-65
2022/04/15 00:44:38;;;;;;;;;;;;;;;;;;5054469;28;20041;-65
2022/04/15 00:47:17;;;;;;;22.08;9.40;;;;;;;;;;5053949;28;19978;-65
2022/04/15 00:49:43;;;;;;;18.40;8.90;;;;;;;;;;5055031;28;20063;-65
2022/04/15 00:52:10;;;;;;;22.80;9.52;;;;;;;;;;5055220;28;20084;-65
2022/04/15 00:54:45;;;;;;;20.58;8.88;;;;;;;;;;5055688;28;20128;-65
2022/04/15 00:57:12;;;;;;;18.42;8.70;;;;;;;;;;5055398;28;20048;-65
2022/04/15 00:59:39;;;;;;;17.63;8.15;;;;;;;;;;5054806;28;20067;-65
2022/04/15 01:02:05;;;;;;;18.23;8.60;;;;;;;;;;5055021;28;20041;-65
2022/04/15 01:04:31;;;;;;;18.92;7.40;;;;;;;;;;5037140;28;20055;-65
2022/04/15 01:07:03;;;;;;;19.08;6.82;;;;;;;;;;5053202;28;20053;-65
2022/04/15 01:09:33;;;;;;;15.52;7.05;;;;;;;;;;5055022;28;20045;-65
2022/04/15 01:12:04;;;;;;;18.15;6.93;;;;;;;;;;5054753;28;20116;-64
2022/04/15 01:14:31;;;;;;;16.80;7.20;;;;;;;;;;5055501;28;20064;-64
2022/04/15 01:16:57;;;;;;;18.85;7.50;;;;;;;;;;5036899;28;20159;-65
2022/04/15 01:19:23;;;;;;;15.10;7.10;;;;;;;;;;5037504;28;20056;-64
2022/04/15 01:21:50;;;;;;;16.25;6.68;;;;;;;;;;5053245;28;20049;-64
2022/04/15 01:24:16;;;;;;;17.92;7.05;;;;;;;;;;5053816;28;20071;-65
2022/04/15 01:26:48;;;;;;;15.32;6.55;;;;;;;;;;5054057;28;20497;-65
2022/04/15 01:29:15;;;;;;;15.52;6.68;;;;;;;;;;5036798;28;20064;-65
2022/04/15 01:31:41;;;;;;;21.55;7.78;;;;;;;;;;5051936;28;20053;-64
2022/04/15 01:34:08;;;;;;;19.85;7.22;;;;;;;;;;5053186;28;20056;-65
2022/04/15 01:36:34;;;;;;;16.08;6.60;;;;;;;;;;5052964;28;20057;-65
2022/04/15 01:39:01;;;;;;;15.35;6.75;;;;;;;;;;5053030;28;20536;-65
2022/04/15 01:41:27;;;;;;;17.58;6.95;;;;;;;;;;5052589;28;20107;-65
2022/04/15 01:43:53;;;;;;;18.23;7.13;;;;;;;;;;5051850;28;20057;-65
2022/04/15 01:46:19;;;;;;;16.35;7.07;;;;;;;;;;5051877;28;20080;-60
2022/04/15 01:48:45;;;;;;;17.02;7.75;;;;;;;;;;5048567;28;20045;-60
2022/04/15 01:51:11;;;;;;;13.75;6.78;;;;;;;;;;5049983;28;20040;-59
2022/04/15 01:53:37;;;;;;;17.92;7.35;;;;;;;;;;5048607;28;20104;-59
2022/04/15 01:56:05;;;;;;;24.63;8.35;;;;;;;;;;5049953;28;20148;-59
2022/04/15 01:58:32;;;;;;;21.38;8.43;;;;;;;;;;5051875;28;20084;-60
2022/04/15 02:00:58;;;;;;;22.13;7.68;;;;;;;;;;5051107;28;20160;-60
2022/04/15 02:03:24;;;;;;;18.60;7.75;;;;;;;;;;5052090;28;20045;-60
2022/04/15 02:05:51;;;;;;;23.58;7.88;;;;;;;;;;5051884;28;20346;-60
2022/04/15 02:08:18;;;;;;;;;;;;;;;;;;5053041;28;20064;-60
2022/04/15 02:10:44;;;;;;;23.40;9.35;;;;;;;;;;5052314;28;19921;-59
2022/04/15 02:13:10;;;;;;;24.90;9.45;;;;;;;;;;5033921;28;20051;-61
2022/04/15 02:15:36;;;;;;;23.40;9.40;;;;;;;;;;5052279;28;20045;-61
2022/04/15 02:18:03;;;;;;;24.27;9.88;;;;;;;;;;5052108;28;20056;-61
2022/04/15 02:20:29;;;;;;;23.30;9.35;;;;;;;;;;5050906;28;20045;-60
2022/04/15 02:22:55;;;;;;;23.27;9.90;;;;;;;;;;5051276;28;20156;-61
2022/04/15 02:25:21;;;;;;;27.67;10.45;;;;;;;;;;5049655;28;20052;-60
2022/04/15 02:27:47;;;;;;;23.40;10.15;;;;;;;;;;5048113;28;20053;-60
2022/04/15 02:30:13;;;;;;;25.20;10.25;;;;;;;;;;5049140;28;20444;-60
2022/04/15 02:32:39;;;;;;;30.00;10.85;;;;;;;;;;5049464;28;20040;-61
2022/04/15 02:35:08;;;;;;;22.48;10.15;;;;;;;;;;5047795;28;20430;-60
2022/04/15 02:37:34;;;;;;;22.67;10.05;;;;;;;;;;5064560;28;20182;-60
2022/04/15 02:40:00;;;;;;;24.02;10.50;;;;;;;;;;5047872;28;20040;-61
2022/04/15 02:42:27;;;;;;;21.70;12.20;;;;;;;;;;5046993;28;20477;-61
2022/04/15 02:44:53;;;;;;;26.63;12.65;;;;;;;;;;5064449;28;20204;-60
2022/04/15 02:47:19;;;;;;;27.58;15.20;;;;;;;;;;5049351;28;20123;-61
2022/04/15 02:49:45;;;;;;;31.08;17.73;;;;;;;;;;5049057;28;20094;-59
2022/04/15 02:52:12;;;;;;;30.92;17.80;;;;;;;;;;5049018;28;20092;-60
2022/04/15 02:54:38;;;;;;;;;;;;;;;;;;5049599;28;20096;-60
2022/04/15 02:57:04;;;;;;;29.63;18.27;;;;;;;;;;5049017;28;19920;-60
2022/04/15 02:59:30;;;;;;;27.52;17.10;;;;;;;;;;5049239;28;20068;-60
2022/04/15 03:01:56;;;;;;;28.33;17.90;;;;;;;;;;5049231;28;20157;-60
2022/04/15 03:04:23;;;;;;;29.05;17.77;;;;;;;;;;5047875;28;20326;-60
2022/04/15 03:06:49;;;;;;;24.95;16.02;;;;;;;;;;5047335;28;20053;-60
2022/04/15 03:09:15;;;;;;;26.10;15.27;;;;;;;;;;5049003;28;20053;-60
2022/04/15 03:11:41;;;;;;;22.50;14.90;;;;;;;;;;5047835;28;20048;-59
2022/04/15 03:14:08;;;;;;;23.63;12.35;;;;;;;;;;5047883;28;20061;-60
2022/04/15 03:16:34;;;;;;;18.38;10.95;;;;;;;;;;5064203;28;20481;-61
2022/04/15 03:19:03;;;;;;;17.73;10.75;;;;;;;;;;5063995;28;20064;-60
2022/04/15 03:21:29;;;;;;;16.48;9.43;;;;;;;;;;5047497;28;20072;-60
2022/04/15 03:23:55;;;;;;;17.35;9.23;;;;;;;;;;5048824;28;20479;-60
2022/04/15 03:26:22;;;;;;;14.85;9.30;;;;;;;;;;5049136;28;20041;-60
2022/04/15 03:28:48;;;;;;;18.25;9.80;;;;;;;;;;5049082;28;20477;-60
2022/04/15 03:31:14;;;;;;;15.60;9.40;;;;;;;;;;5031247;28;20096;-60
2022/04/15 03:33:40;;;;;;;14.70;9.30;;;;;;;;;;5047399;28;20131;-61
2022/04/15 03:36:07;;;;;;;15.18;10.05;;;;;;;;;;5047531;28;20044;-60
2022/04/15 03:38:33;;;;;;;16.30;9.18;;;;;;;;;;5049048;28;20060;-60
2022/04/15 03:40:59;;;;;;;14.50;8.65;;;;;;;;;;5048751;28;20040;-60
2022/04/15 03:43:26;;;;;;;12.52;7.15;;;;;;;;;;5048843;28;20067;-60
2022/04/15 03:45:52;;;;;;;15.57;8.70;;;;;;;;;;5047281;28;20128;-60
2022/04/15 03:48:18;;;;;;;11.00;6.18;;;;;;;;;;5030566;28;20132;-60
2022/04/15 03:50:47;;;;;;;12.00;5.75;;;;;;;;;;5048929;28;20064;-60
2022/04/15 03:53:13;;;;;;;11.93;6.20;;;;;;;;;;5048507;28;20044;-60
2022/04/15 03:55:39;;;;;;;12.27;6.60;;;;;;;;;;5051670;28;20083;-60
2022/04/15 03:58:05;;;;;;;10.80;5.75;;;;;;;;;;5052225;28;20120;-61
2022/04/15 04:00:31;;;;;;;12.43;7.40;;;;;;;;;;5050501;28;20059;-60
2022/04/15 04:02:57;;;;;;;12.13;7.03;;;;;;;;;;5053620;28;20049;-60
2022/04/15 04:05:23;;;;;;;14.07;7.03;;;;;;;;;;5052421;28;20045;-60
2022/04/15 04:07:49;;;;;;;;;;;;;;;;;;5050793;28;20358;-60
2022/04/15 04:10:16;;;;;;;12.55;7.20;;;;;;;;;;5052242;28;19920;-60
2022/04/15 04:12:42;;;;;;;13.52;7.50;;;;;;;;;;5050562;28;20086;-61
2022/04/15 04:15:09;;;;;;;14.50;7.32;;;;;;;;;;5050548;28;20045;-60
2022/04/15 04:17:36;;;;;;;14.80;7.53;;;;;;;;;;5051865;28;20044;-61
2022/04/15 04:20:02;;;;;;;11.18;6.13;;;;;;;;;;5050538;28;20045;-60
2022/04/15 04:22:29;;;;;;;12.23;5.60;;;;;;;;;;5052007;28;20118;-60
2022/04/15 04:24:55;;;;;;;13.25;5.80;;;;;;;;;;5051934;28;20045;-60
2022/04/15 04:27:21;;;;;;;12.02;6.07;;;;;;;;;;5051540;28;20075;-60
2022/04/15 04:29:47;;;;;;;10.45;5.10;;;;;;;;;;5051740;28;20410;-61
2022/04/15 04:32:15;;;;;;;13.38;6.43;;;;;;;;;;5049930;28;20125;-61
2022/04/15 04:34:41;;;;;;;14.05;6.38;;;;;;;;;;5051703;28;20049;-60
2022/04/15 04:37:07;;;;;;;10.80;6.03;;;;;;;;;;5051511;28;20056;-60
2022/04/15 04:39:33;;;;;;;13.27;6.40;;;;;;;;;;5051323;28;20131;-61
2022/04/15 04:41:59;;;;;;;12.48;6.63;;;;;;;;;;5051475;28;20052;-61
2022/04/15 04:44:25;;;;;;;;;;;;;;;;;;5051765;28;20041;-61
2022/04/15 04:46:52;;;;;;;12.98;6.95;;;;;;;;;;5051344;28;20234;-60
2022/04/15 04:49:19;;;;;;;12.32;6.97;;;;;;;;;;5051347;28;20060;-61
2022/04/15 04:51:45;;;;;;;12.75;6.72;;;;;;;;;;5051394;28;20136;-61
2022/04/15 04:54:11;;;;;;;12.55;6.07;;;;;;;;;;5051440;28;20056;-60
2022/04/15 04:56:37;;;;;;;;;;;;;;;;;;5051615;28;20059;-60
2022/04/15 04:59:03;;;;;;;12.82;6.25;;;;;;;;;;5051224;28;19921;-60
2022/04/15 05:01:29;;;;;;;12.88;6.40;;;;;;;;;;5051102;28;20133;-60
2022/04/15 05:03:55;;;;;;;13.88;6.13;;;;;;;;;;5051332;28;20392;-60
2022/04/15 05:06:21;;;;;;;12.57;6.20;;;;;;;;;;5045160;28;20145;-60
2022/04/15 05:08:47;;;;;;;14.25;7.05;;;;;;;;;;5051375;28;20122;-61
2022/04/15 05:11:13;;;;;;;11.32;6.82;;;;;;;;;;5051039;28;20495;-62
2022/04/15 05:13:39;;;;;;;13.23;7.40;;;;;;;;;;5051084;28;20044;-61
2022/04/15 05:16:06;;;;;;;13.13;7.30;;;;;;;;;;5050987;28;20129;-60
2022/04/15 05:18:33;;;;;;;13.85;7.80;;;;;;;;;;5050737;28;20087;-61
2022/04/15 05:20:59;;;;;;;13.23;7.43;;;;;;;;;;5050935;28;20442;-60
2022/04/15 05:23:25;;;;;;;14.10;7.57;;;;;;;;;;5050939;28;20037;-61
2022/04/15 05:25:51;;;;;;;15.60;7.10;;;;;;;;;;5049409;28;20308;-60
2022/04/15 05:28:18;;;;;;;17.20;7.78;;;;;;;;;;5049044;28;20052;-62
2022/04/15 05:30:44;;;;;;;14.57;7.65;;;;;;;;;;5050706;28;20064;-60
2022/04/15 05:33:10;;;;;;;13.10;7.90;;;;;;;;;;5048547;28;20041;-61
2022/04/15 05:35:36;;;;;;;13.32;7.38;;;;;;;;;;5050490;28;20050;-61
2022/04/15 05:38:03;;;;;;;17.17;8.35;;;;;;;;;;5049077;28;20148;-61
2022/04/15 05:40:30;;;;;;;17.05;9.35;;;;;;;;;;5050393;28;20416;-61
2022/04/15 05:42:56;;;;;;;18.85;9.85;;;;;;;;;;5050523;28;20063;-61
2022/04/15 05:45:22;;;;;;;14.02;8.82;;;;;;;;;;5050279;28;20524;-61
2022/04/15 05:47:48;;;;;;;15.90;9.57;;;;;;;;;;5050329;28;20051;-61
2022/04/15 05:50:14;;;;;;;16.23;8.75;;;;;;;;;;5050281;28;20108;-60
2022/04/15 05:52:40;;;;;;;14.45;8.25;;;;;;;;;;5050114;28;20045;-61
2022/04/15 05:55:06;;;;;;;17.02;9.15;;;;;;;;;;5048594;28;20123;-62
2022/04/15 05:57:32;;;;;;;;;;;;;;;;;;5050149;28;20430;-61
2022/04/15 05:59:58;;;;;;;17.65;10.35;;;;;;;;;;5050250;28;19921;-62
2022/04/15 06:02:25;;;;;;;19.55;10.02;;;;;;;;;;5048666;28;20049;-61
2022/04/15 06:04:51;;;;;;;18.02;10.15;;;;;;;;;;5050165;28;20044;-61
2022/04/15 06:07:17;;;;;;;16.77;10.50;;;;;;;;;;5050183;28;20065;-61
2022/04/15 06:09:47;;;;;;;21.30;11.38;;;;;;;;;;5047890;28;20064;-62
2022/04/15 06:12:13;;;;;;;20.05;12.25;;;;;;;;;;5049783;28;20343;-61
2022/04/15 06:14:39;;;;;;;20.10;12.70;;;;;;;;;;5064928;28;20049;-61
2022/04/15 06:17:05;;;;;;;19.35;11.88;;;;;;;;;;5048159;28;20143;-61
2022/04/15 06:19:32;;;;;;;19.23;12.95;;;;;;;;;;5048898;28;20128;-61
2022/04/15 06:21:58;;;;;;;22.00;13.80;;;;;;;;;;5050532;28;20049;-61
2022/04/15 06:24:24;;;;;;;23.45;14.23;;;;;;;;;;5064540;28;20469;-62
2022/04/15 06:26:51;;;;;;;20.23;13.50;;;;;;;;;;5050171;28;20041;-60
2022/04/15 06:29:17;;;;;;;27.92;15.57;;;;;;;;;;5049222;28;20045;-61
2022/04/15 06:31:45;;;;;;;25.98;14.85;;;;;;;;;;5049000;28;20059;-61
2022/04/15 06:34:11;;;;;;;27.83;16.17;;;;;;;;;;5048951;28;20477;-61
2022/04/15 06:36:37;;;;;;;26.00;16.02;;;;;;;;;;5049084;28;20144;-61
2022/04/15 06:39:03;;;;;;;27.05;17.33;;;;;;;;;;5047451;28;20052;-61
2022/04/15 06:41:29;;;;;;;27.08;16.88;;;;;;;;;;5047342;28;20064;-61
2022/04/15 06:43:56;;;;;;;26.92;16.88;;;;;;;;;;5049011;28;20053;-61
2022/04/15 06:46:22;;;;;;;31.38;18.20;;;;;;;;;;5049031;28;20121;-61
2022/04/15 06:48:48;;;;;;;31.67;18.55;;;;;;;;;;5048811;28;20124;-60
2022/04/15 06:51:14;;;;;;;29.98;17.88;;;;;;;;;;5049295;28;20478;-60
2022/04/15 06:53:40;;;;;;;28.85;16.67;;;;;;;;;;5049034;28;20085;-63
2022/04/15 06:56:06;;;;;;;33.95;16.73;;;;;;;;;;5048980;28;20132;-60
2022/04/15 06:58:32;;;;;;;31.80;15.98;;;;;;;;;;5049052;28;20044;-60
2022/04/15 07:00:59;;;;;;;31.85;14.93;;;;;;;;;;5047249;28;20080;-61
2022/04/15 07:03:28;;;;;;;25.88;13.90;;;;;;;;;;5064371;28;20047;-60
2022/04/15 07:05:54;;;;;;;26.13;14.80;;;;;;;;;;5047648;28;20093;-60
2022/04/15 07:08:20;;;;;;;26.10;15.07;;;;;;;;;;5049105;28;20111;-61
2022/04/15 07:10:46;;;;;;;29.02;14.40;;;;;;;;;;5049260;28;20044;-60
2022/04/15 07:13:12;;;;;;;28.08;14.82;;;;;;;;;;5049112;28;20045;-60
2022/04/15 07:15:38;;;;;;;28.88;16.33;;;;;;;;;;5048720;28;20122;-61
2022/04/15 07:18:04;;;;;;;26.90;14.93;;;;;;;;;;5047164;28;20113;-61
2022/04/15 07:20:31;;;;;;;26.13;13.40;;;;;;;;;;5047163;28;20055;-63
2022/04/15 07:23:00;;;;;;;24.70;12.68;;;;;;;;;;5030785;28;20157;-62
2022/04/15 07:25:27;;;;;;;25.15;12.20;;;;;;;;;;5048214;28;20072;-62
2022/04/15 07:27:53;;;;;;;25.73;11.65;;;;;;;;;;5063790;28;20044;-61
2022/04/15 07:30:20;;;;;;;23.05;10.35;;;;;;;;;;5052017;28;20056;-59
2022/04/15 07:32:46;;;;;;;22.25;11.10;;;;;;;;;;5051800;28;20120;-60
2022/04/15 07:35:12;;;;;;;22.98;11.38;;;;;;;;;;5051680;28;20190;-59
2022/04/15 07:37:42;;;;;;;22.77;12.00;;;;;;;;;;5051707;28;20045;-60
2022/04/15 07:40:10;;;;;;;22.35;11.30;;;;;;;;;;5051733;28;20057;-59
2022/04/15 07:42:36;;;;;;;23.40;11.80;;;;;;;;;;5051325;28;20124;-61
2022/04/15 07:45:02;;;;;;;24.88;11.18;;;;;;;;;;5051494;28;20141;-60
2022/04/15 07:47:28;;;;;;;;;;;;;;;;;;5051706;28;20048;-59
2022/04/15 07:49:55;;;;;;;19.33;10.63;;;;;;;;;;5049979;28;19921;-60
2022/04/15 07:52:21;;;;;;;20.67;11.15;;;;;;;;;;5051426;28;20117;-59
2022/04/15 07:54:48;;;;;;;23.88;10.75;;;;;;;;;;5051115;28;20118;-60
2022/04/15 07:57:17;;;;;;;23.17;10.55;;;;;;;;;;5049560;28;20110;-60
2022/04/15 07:59:43;;;;;;;22.20;10.25;;;;;;;;;;5051545;28;20099;-60
2022/04/15 08:02:10;;;;;;;21.75;10.68;;;;;;;;;;5050983;28;20118;-60
2022/04/15 08:04:41;;;;;;;26.33;11.23;;;;;;;;;;5066348;28;20144;-61
2022/04/15 08:07:10;;;;;;;27.42;10.95;;;;;;;;;;5051315;28;20061;-60
2022/04/15 08:09:39;;;;;;;24.95;11.35;;;;;;;;;;5051321;28;20090;-60
2022/04/15 08:12:08;;;;;;;22.58;9.98;;;;;;;;;;5052101;28;20553;-62
2022/04/15 08:14:34;;;;;;;23.50;9.77;;;;;;;;;;5051128;28;20465;-61
2022/04/15 08:17:00;;;;;;;19.70;10.00;;;;;;;;;;5051555;28;20073;-61
2022/04/15 08:19:26;;;;;;;20.00;9.30;;;;;;;;;;5050633;28;20461;-60
2022/04/15 08:21:53;;;;;;;17.83;8.80;;;;;;;;;;5049211;28;20048;-60
2022/04/15 08:24:19;;;;;;;18.98;9.63;;;;;;;;;;5049394;28;20106;-61
2022/04/15 08:26:45;;;;;;;;;;;;;;;;;;5050669;28;20107;-61
2022/04/15 08:29:11;;;;;;;26.80;10.48;;;;;;;;;;5051048;28;19939;-60
2022/04/15 08:31:39;;;;;;;19.00;9.30;;;;;;;;;;5049274;28;20384;-61
2022/04/15 08:34:06;;;;;;;18.27;9.38;;;;;;;;;;5047771;28;20067;-62
2022/04/15 08:36:32;;;;;;;18.75;9.05;;;;;;;;;;5051552;28;20045;-62
2022/04/15 08:38:58;;;;;;;21.55;9.73;;;;;;;;;;5051292;28;20049;-61
2022/04/15 08:41:24;;;;;;;;;;;;;;;;;;5050752;28;20339;-61
2022/04/15 08:43:50;;;;;;;18.88;9.50;;;;;;;;;;5050532;28;19920;-61
2022/04/15 08:46:18;;;;;;;16.83;9.30;;;;;;;;;;5050809;28;20071;-62
2022/04/15 08:48:44;;;;;;;19.33;8.60;;;;;;;;;;5050569;28;20057;-62
2022/04/15 08:51:10;;;;;;;;;;;;;;;;;;5051261;28;20052;-61
2022/04/15 08:53:37;;;;;;;16.83;9.13;;;;;;;;;;5048990;28;19925;-61
2022/04/15 08:56:03;;;;;;;;;;;;;;;;;;5049218;28;20055;-61
2022/04/15 08:58:29;;;;;;;18.35;8.43;;;;;;;;;;5049969;28;20019;-61
2022/04/15 09:00:55;;;;;;;15.35;8.40;;;;;;;;;;5050022;28;20041;-61
2022/04/15 09:03:21;;;;;;;14.65;7.30;;;;;;;;;;5049961;28;20041;-62
2022/04/15 09:05:51;;;;;;;15.80;7.55;;;;;;;;;;5051082;28;20135;-62
2022/04/15 09:08:17;;;;;;;19.70;7.97;;;;;;;;;;5051045;28;20079;-60
2022/04/15 09:10:43;;;;;;;;;;;;;;;;;;5050326;28;20080;-63
2022/04/15 09:13:23;;;;;;;19.50;8.10;;;;;;;;;;5048291;28;20388;-61
2022/04/15 09:15:49;;;;;;;22.27;7.93;;;;;;;;;;5049966;28;20049;-61
2022/04/15 09:18:31;;;;;;;23.70;8.35;;;;;;;;;;5031809;28;20052;-60
2022/04/15 09:21:16;;;;;;;18.58;8.60;;;;;;;;;;5048135;28;20060;-61
2022/04/15 09:23:44;;;;;;;25.77;9.05;;;;;;;;;;5049737;28;20128;-61
2022/04/15 09:26:10;;;;;;;37.35;9.88;;;;;;;;;;5049218;28;20448;-61
2022/04/15 09:28:37;;;;;;;36.22;9.50;;;;;;;;;;5048217;28;20107;-61
2022/04/15 09:31:03;;;;;;;21.48;9.38;;;;;;;;;;5050445;28;20095;-62
2022/04/15 09:33:29;;;;;;;17.25;8.18;;;;;;;;;;5032057;28;20082;-61
2022/04/15 09:35:56;;;;;;;15.57;8.60;;;;;;;;;;5050352;28;20049;-62
2022/04/15 09:38:40;;;;;;;18.63;9.15;;;;;;;;;;5048862;28;20117;-62
2022/04/15 09:41:19;;;;;;;20.60;8.82;;;;;;;;;;5049954;28;20146;-60
2022/04/15 09:43:51;;;;;;;17.63;9.57;;;;;;;;;;5050423;28;20140;-61
2022/04/15 09:46:17;;;;;;;18.75;9.20;;;;;;;;;;5048643;28;20206;-61
2022/04/15 09:48:57;;;;;;;20.10;9.65;;;;;;;;;;5050792;28;20072;-61
2022/04/15 09:51:24;;;;;;;19.48;8.85;;;;;;;;;;5049388;28;20060;-61
2022/04/15 09:53:55;;;;;;;;;;;;;;;;;;5048681;28;20124;-60
2022/04/15 09:56:22;;;;;;;18.95;9.63;;;;;;;;;;5049559;28;20464;-61
2022/04/15 09:58:51;;;;;;;17.92;9.73;;;;;;;;;;5049120;28;20068;-61
2022/04/15 10:01:17;;;;;;;20.55;9.52;;;;;;;;;;5049356;28;20139;-62
2022/04/15 10:03:45;;;;;;;19.20;9.20;;;;;;;;;;5047919;28;20146;-61
2022/04/15 10:06:11;;;;;;;18.83;9.82;;;;;;;;;;5048193;28;20057;-62
2022/04/15 10:08:39;;;;;;;19.00;9.80;;;;;;;;;;5049080;28;20434;-62
2022/04/15 10:11:08;;;;;;;15.90;8.80;;;;;;;;;;5049858;28;20127;-62
2022/04/15 10:13:35;;;;;;;19.83;9.32;;;;;;;;;;5049531;28;20159;-62
2022/04/15 10:16:02;;;;;;;18.42;9.52;;;;;;;;;;5049389;28;20104;-62
2022/04/15 10:18:29;;;;;;;18.13;9.32;;;;;;;;;;5049119;28;20198;-61
2022/04/15 10:20:55;;;;;;;18.27;9.63;;;;;;;;;;5048899;28;20397;-64
2022/04/15 10:23:22;;;;;;;16.45;8.57;;;;;;;;;;5048602;28;20196;-62
2022/04/15 10:25:49;;;;;;;16.67;8.10;;;;;;;;;;5047120;28;20466;-61
2022/04/15 10:28:19;;;;;;;16.13;8.85;;;;;;;;;;5049020;28;20160;-62
2022/04/15 10:31:04;;;;;;;15.27;7.45;;;;;;;;;;5048834;28;20057;-63
2022/04/15 10:33:30;;;;;;;18.35;9.20;;;;;;;;;;5048718;28;20058;-61
2022/04/15 10:36:00;;;;;;;17.40;9.18;;;;;;;;;;5048614;28;20211;-62
2022/04/15 10:38:29;;;;;;;18.67;11.18;;;;;;;;;;5030781;28;20159;-62
2022/04/15 10:40:56;;;;;;;19.85;9.68;;;;;;;;;;5048234;28;20060;-61
2022/04/15 10:43:23;;;;;;;19.08;9.70;;;;;;;;;;5048223;28;20113;-62
2022/04/15 10:45:51;;;;;;;19.67;9.65;;;;;;;;;;5046927;28;20132;-62
2022/04/15 10:48:31;;;;;;;74.15;12.18;;;;;;;;;;5046926;28;20143;-62
2022/04/15 10:50:58;;;;;;;16.98;9.98;;;;;;;;;;5048418;28;20131;-64
2022/04/15 10:53:31;;;;;;;19.00;8.98;;;;;;;;;;5048587;28;20084;-62
2022/04/15 10:56:05;;;;;;;17.98;8.70;;;;;;;;;;5047026;28;20048;-62
2022/04/15 10:58:32;;;;;;;18.38;9.02;;;;;;;;;;5048535;28;20092;-62
2022/04/15 11:01:17;;;;;;;25.58;9.98;;;;;;;;;;5047009;28;20060;-63
2022/04/15 11:03:53;;;;;;;18.70;8.60;;;;;;;;;;5050124;28;20110;-63
2022/04/15 11:06:26;;;;;;;17.77;9.02;;;;;;;;;;5052605;28;20045;-62
2022/04/15 11:08:52;;;;;;;18.48;10.68;;;;;;;;;;5031137;28;20184;-62
2022/04/15 11:11:32;;;;;;;17.40;9.20;;;;;;;;;;5032681;28;20041;-62
2022/04/15 11:13:59;;;;;;;17.48;10.57;;;;;;;;;;5032470;28;20079;-61
2022/04/15 11:16:39;;;;;;;18.75;9.57;;;;;;;;;;5032054;28;20144;-61
2022/04/15 11:19:05;;;;;;;18.23;9.65;;;;;;;;;;5032131;28;20103;-63
2022/04/15 11:21:39;;;;;;;19.88;9.98;;;;;;;;;;5032070;28;20045;-62
2022/04/15 11:24:09;;;;;;;19.70;9.40;;;;;;;;;;5031967;28;20041;-63
2022/04/15 11:26:37;;;;;;;20.70;10.98;;;;;;;;;;5032667;28;20068;-62
2022/04/15 11:29:04;;;;;;;19.60;10.00;;;;;;;;;;5031703;28;20473;-62
2022/04/15 11:31:34;;;;;;;29.48;10.73;;;;;;;;;;5033114;28;20128;-61
2022/04/15 11:34:06;;;;;;;20.77;9.98;;;;;;;;;;5032856;28;20136;-61
2022/04/15 11:36:33;;;;;;;18.80;9.88;;;;;;;;;;5032621;28;20053;-61
2022/04/15 11:39:01;;;;;;;19.02;9.13;;;;;;;;;;5047938;28;20068;-61
2022/04/15 11:41:27;;;;;;;18.50;10.07;;;;;;;;;;5031462;28;20135;-61
2022/04/15 11:43:57;;;;;;;18.05;9.82;;;;;;;;;;5031112;28;20100;-61
2022/04/15 11:46:23;;;;;;;17.95;9.57;;;;;;;;;;5032632;28;20132;-61
2022/04/15 11:48:50;;;;;;;17.52;9.45;;;;;;;;;;5032838;28;20156;-61
2022/04/15 11:51:22;;;;;;;16.98;9.70;;;;;;;;;;5032740;28;20090;-61
2022/04/15 11:53:48;;;;;;;19.38;9.80;;;;;;;;;;5032673;28;20135;-60
2022/04/15 11:56:15;;;;;;;16.63;9.43;;;;;;;;;;5032210;28;20388;-61
2022/04/15 11:58:46;;;;;;;20.65;10.15;;;;;;;;;;5032413;28;20128;-61
2022/04/15 12:01:12;;;;;;;19.20;9.80;;;;;;;;;;5030835;28;20045;-61
2022/04/15 12:03:43;;;;;;;23.02;9.95;;;;;;;;;;5031974;28;20056;-59
2022/04/15 12:06:09;;;;;;;18.48;9.38;;;;;;;;;;5032331;28;20442;-62
2022/04/15 12:08:35;;;;;;;18.33;9.60;;;;;;;;;;5049715;28;20052;-61
2022/04/15 12:11:03;;;;;;;16.38;9.00;;;;;;;;;;5050521;28;20055;-61
2022/04/15 12:13:38;;;;;;;20.90;9.40;;;;;;;;;;5035408;28;20159;-62
2022/04/15 12:16:04;;;;;;;19.50;9.93;;;;;;;;;;5050447;28;20048;-61
2022/04/15 12:18:33;;;;;;;17.15;9.35;;;;;;;;;;5050568;28;20384;-62
2022/04/15 12:20:59;;;;;;;21.10;10.07;;;;;;;;;;5051460;28;20088;-61
2022/04/15 12:23:26;;;;;;;19.60;9.57;;;;;;;;;;5050270;28;20125;-61
2022/04/15 12:26:13;;;;;;;19.40;9.68;;;;;;;;;;5050406;28;20049;-61
2022/04/15 12:31:32;;;;;;;17.42;9.68;;;;;;;;;;5052605;28;20115;-60
2022/04/15 12:34:01;;;;;;;17.52;9.85;;;;;;;;;;5051488;28;20105;-61
2022/04/15 12:36:48;;;;;;;20.58;10.68;;;;;;;;;;5051453;28;20504;-61
2022/04/15 12:39:17;;;;;;;19.80;10.13;;;;;;;;;;5051646;28;20131;-61
2022/04/15 12:41:48;;;;;;;23.90;10.52;;;;;;;;;;5051350;28;20120;-61
2022/04/15 12:44:15;;;;;;;22.40;10.30;;;;;;;;;;5051927;28;20414;-63
2022/04/15 12:46:43;;;;;;;18.13;10.55;;;;;;;;;;5051134;28;20407;-62
2022/04/15 12:49:25;;;;;;;18.00;10.65;;;;;;;;;;5050017;28;20147;-61
2022/04/15 12:51:53;;;;;;;19.77;10.02;;;;;;;;;;5051322;28;20102;-61
2022/04/15 12:54:19;;;;;;;18.10;10.13;;;;;;;;;;5051143;28;20064;-60
2022/04/15 12:56:54;;;;;;;24.85;10.77;;;;;;;;;;5051311;28;20084;-60
2022/04/15 12:59:22;;;;;;;20.73;10.30;;;;;;;;;;5049809;28;20159;-61
2022/04/15 13:01:54;;;;;;;16.58;9.43;;;;;;;;;;5051151;28;20307;-60
2022/04/15 13:04:21;;;;;;;17.27;9.77;;;;;;;;;;5050911;28;20477;-61
2022/04/15 13:06:47;;;;;;;19.38;9.90;;;;;;;;;;5050922;28;20219;-61
2022/04/15 13:09:15;;;;;;;18.17;10.02;;;;;;;;;;5051331;28;20101;-60
2022/04/15 13:11:42;;;;;;;18.17;9.75;;;;;;;;;;5051026;28;20049;-61
2022/04/15 13:14:08;;;;;;;;;;;;;;;;;;5051672;28;20102;-61
2022/04/15 13:16:34;;;;;;;18.70;10.07;;;;;;;;;;5050992;28;19921;-61
2022/04/15 13:19:00;;;;;;;20.15;9.63;;;;;;;;;;5050870;28;20452;-61
2022/04/15 13:21:26;;;;;;;18.70;9.75;;;;;;;;;;5050694;28;20049;-60
2022/04/15 13:23:59;;;;;;;18.13;9.63;;;;;;;;;;5050699;28;20450;-60
2022/04/15 13:26:29;;;;;;;16.13;9.57;;;;;;;;;;5049179;28;20494;-61
2022/04/15 13:28:55;;;;;;;;;;;;;;;;;;5051160;28;20045;-58
2022/04/15 13:31:21;;;;;;;17.83;9.52;;;;;;;;;;5050711;28;20034;-60
2022/04/15 13:33:47;;;;;;;18.75;10.68;;;;;;;;;;5049017;28;20475;-58
2022/04/15 13:36:13;;;;;;;16.60;9.95;;;;;;;;;;5048930;28;20115;-59
2022/04/15 13:38:50;;;;;;;17.90;9.90;;;;;;;;;;5050520;28;20052;-58
2022/04/15 13:41:16;;;;;;;20.67;9.88;;;;;;;;;;5050076;28;20100;-58
2022/04/15 13:43:42;;;;;;;18.38;10.80;;;;;;;;;;5049139;28;20458;-59
2022/04/15 13:46:10;;;;;;;21.95;10.25;;;;;;;;;;5050734;28;20052;-60
2022/04/15 13:48:36;;;;;;;19.08;10.05;;;;;;;;;;5051462;28;20141;-60
2022/04/15 13:51:02;;;;;;;;;;;;;;;;;;5052587;28;20053;-61
2022/04/15 13:59:01;;;;;;;18.30;9.85;;;;;;;;;;5050532;28;20065;-59
2022/04/15 14:01:33;;;;;;;17.02;9.63;;;;;;;;;;5049525;28;20072;-59
2022/04/15 14:04:01;;;;;;;18.00;10.80;;;;;;;;;;5050838;28;20061;-60
2022/04/15 14:06:27;;;;;;;20.20;10.23;;;;;;;;;;5050193;28;20262;-61
2022/04/15 14:08:54;;;;;;;19.88;10.70;;;;;;;;;;5050756;28;20053;-61
2022/04/15 14:11:23;;;;;;;16.55;10.25;;;;;;;;;;5050275;28;20183;-63
2022/04/15 14:13:50;;;;;;;16.48;9.57;;;;;;;;;;5050594;28;20045;-61
2022/04/15 14:16:16;;;;;;;18.98;8.82;;;;;;;;;;5049184;28;20071;-60
2022/04/15 14:18:42;;;;;;;20.13;9.18;;;;;;;;;;5050560;28;20161;-61
2022/04/15 14:21:12;;;;;;;19.75;11.45;;;;;;;;;;5049914;28;20092;-59
2022/04/15 14:23:38;;;;;;;17.98;9.80;;;;;;;;;;5050403;28;20081;-60
2022/04/15 14:26:05;;;;;;;20.42;10.30;;;;;;;;;;5050606;28;20180;-60
2022/04/15 14:28:35;;;;;;;21.67;10.30;;;;;;;;;;5050823;28;20103;-61
2022/04/15 14:31:03;;;;;;;20.35;11.05;;;;;;;;;;5050248;28;20053;-61
2022/04/15 14:33:32;;;;;;;18.42;9.35;;;;;;;;;;5050071;28;20049;-59
2022/04/15 14:35:59;;;;;;;21.63;9.90;;;;;;;;;;5049971;28;20080;-60
2022/04/15 14:38:25;;;;;;;;;;;;;;;;;;5049981;28;20131;-60
2022/04/15 14:40:51;;;;;;;19.67;10.52;;;;;;;;;;5048646;28;20023;-59